sensor_id;sensor_type;location;lat;lon;timestamp;temperature;humidity
997;DHT22;487;50.126;8.698;2023-01-29T00:01:33;2.20;1.00
997;DHT22;487;50.126;8.698;2023-01-29T00:04:02;2.10;1.00
997;DHT22;487;50.126;8.698;2023-01-29T00:06:29;2.10;1.00
997;DHT22;487;50.126;8.698;2023-01-29T00:08:57;2.10;1.00
997;DHT22;487;50.126;8.698;2023-01-29T00:11:27;2.10;1.00
997;DHT22;487;50.126;8.698;2023-01-29T00:13:55;2.00;1.00
997;DHT22;487;50.126;8.698;2023-01-29T00:16:23;2.00;1.00
997;DHT22;487;50.126;8.698;2023-01-29T00:18:51;2.00;1.00
997;DHT22;487;50.126;8.698;2023-01-29T00:21:20;2.00;1.00
997;DHT22;487;50.126;8.698;2023-01-29T00:23:49;1.90;1.00
997;DHT22;487;50.126;8.698;2023-01-29T00:26:17;1.90;1.00
997;DHT22;487;50.126;8.698;2023-01-29T00:28:47;1.90;1.00
997;DHT22;487;50.126;8.698;2023-01-29T00:31:16;1.90;1.00
997;DHT22;487;50.126;8.698;2023-01-29T00:33:44;1.90;1.00
997;DHT22;487;50.126;8.698;2023-01-29T00:36:14;2.00;1.00
997;DHT22;487;50.126;8.698;2023-01-29T00:38:42;1.90;1.00
997;DHT22;487;50.126;8.698;2023-01-29T00:41:11;1.90;1.00
997;DHT22;487;50.126;8.698;2023-01-29T00:43:58;1.90;1.00
997;DHT22;487;50.126;8.698;2023-01-29T00:46:45;1.90;1.00
997;DHT22;487;50.126;8.698;2023-01-29T00:49:13;1.80;1.00
997;DHT22;487;50.126;8.698;2023-01-29T00:51:40;1.90;1.00
997;DHT22;487;50.126;8.698;2023-01-29T00:54:08;1.90;1.00
997;DHT22;487;50.126;8.698;2023-01-29T00:56:36;1.90;1.00
997;DHT22;487;50.126;8.698;2023-01-29T00:59:07;1.90;1.00
997;DHT22;487;50.126;8.698;2023-01-29T05:02:09;1.10;1.00
997;DHT22;487;50.126;8.698;2023-01-29T05:04:39;1.00;1.00
997;DHT22;487;50.126;8.698;2023-01-29T05:07:10;0.90;1.00
997;DHT22;487;50.126;8.698;2023-01-29T05:09:42;0.80;1.00
997;DHT22;487;50.126;8.698;2023-01-29T05:12:12;0.70;1.00
997;DHT22;487;50.126;8.698;2023-01-29T05:14:43;0.70;1.00
997;DHT22;487;50.126;8.698;2023-01-29T05:17:15;0.60;1.00
997;DHT22;487;50.126;8.698;2023-01-29T05:19:44;0.70;1.00
997;DHT22;487;50.126;8.698;2023-01-29T05:22:15;0.70;1.00
997;DHT22;487;50.126;8.698;2023-01-29T05:24:44;0.70;1.00
997;DHT22;487;50.126;8.698;2023-01-29T05:27:17;0.60;1.00
997;DHT22;487;50.126;8.698;2023-01-29T05:30:04;0.60;1.00
997;DHT22;487;50.126;8.698;2023-01-29T05:32:33;0.60;1.00
997;DHT22;487;50.126;8.698;2023-01-29T05:35:01;0.60;1.00
997;DHT22;487;50.126;8.698;2023-01-29T05:37:29;0.60;1.00
997;DHT22;487;50.126;8.698;2023-01-29T05:39:57;0.60;1.00
997;DHT22;487;50.126;8.698;2023-01-29T05:42:24;0.50;1.00
997;DHT22;487;50.126;8.698;2023-01-29T05:44:52;0.60;1.00
997;DHT22;487;50.126;8.698;2023-01-29T05:47:20;0.50;1.00
997;DHT22;487;50.126;8.698;2023-01-29T05:49:49;0.50;1.00
997;DHT22;487;50.126;8.698;2023-01-29T05:52:17;0.60;1.00
997;DHT22;487;50.126;8.698;2023-01-29T05:54:45;0.50;1.00
997;DHT22;487;50.126;8.698;2023-01-29T05:57:13;0.60;1.00
997;DHT22;487;50.126;8.698;2023-01-29T05:59:41;0.60;1.00
997;DHT22;487;50.126;8.698;2023-01-29T06:02:09;0.60;1.00
997;DHT22;487;50.126;8.698;2023-01-29T06:04:37;0.60;1.00
997;DHT22;487;50.126;8.698;2023-01-29T06:07:06;0.70;1.00
997;DHT22;487;50.126;8.698;2023-01-29T06:09:34;0.70;1.00
997;DHT22;487;50.126;8.698;2023-01-29T06:12:02;0.70;1.00
997;DHT22;487;50.126;8.698;2023-01-29T06:14:31;0.70;1.00
997;DHT22;487;50.126;8.698;2023-01-29T06:16:59;0.70;1.00
997;DHT22;487;50.126;8.698;2023-01-29T06:19:27;0.70;1.00
997;DHT22;487;50.126;8.698;2023-01-29T06:21:55;0.70;1.00
997;DHT22;487;50.126;8.698;2023-01-29T06:24:24;0.70;1.00
997;DHT22;487;50.126;8.698;2023-01-29T06:26:52;0.70;1.00
997;DHT22;487;50.126;8.698;2023-01-29T06:29:20;0.70;1.00
997;DHT22;487;50.126;8.698;2023-01-29T06:31:47;0.70;1.00
997;DHT22;487;50.126;8.698;2023-01-29T06:34:15;0.70;1.00
997;DHT22;487;50.126;8.698;2023-01-29T06:36:43;0.70;1.00
997;DHT22;487;50.126;8.698;2023-01-29T06:39:11;0.70;1.00
997;DHT22;487;50.126;8.698;2023-01-29T06:41:40;0.70;1.00
997;DHT22;487;50.126;8.698;2023-01-29T06:44:08;0.70;1.00
997;DHT22;487;50.126;8.698;2023-01-29T06:46:36;0.70;1.00
997;DHT22;487;50.126;8.698;2023-01-29T06:49:04;0.70;1.00
997;DHT22;487;50.126;8.698;2023-01-29T06:51:32;0.70;1.00
997;DHT22;487;50.126;8.698;2023-01-29T06:54:00;0.70;1.00
997;DHT22;487;50.126;8.698;2023-01-29T06:56:27;0.70;1.00
997;DHT22;487;50.126;8.698;2023-01-29T06:58:57;0.70;1.00
997;DHT22;487;50.126;8.698;2023-01-29T07:01:24;0.70;1.00
997;DHT22;487;50.126;8.698;2023-01-29T07:04:02;0.70;1.00
997;DHT22;487;50.126;8.698;2023-01-29T07:06:31;0.70;1.00
997;DHT22;487;50.126;8.698;2023-01-29T07:08:59;0.80;1.00
997;DHT22;487;50.126;8.698;2023-01-29T07:11:26;0.70;1.00
997;DHT22;487;50.126;8.698;2023-01-29T07:13:54;0.70;1.00
997;DHT22;487;50.126;8.698;2023-01-29T07:16:24;0.70;1.00
997;DHT22;487;50.126;8.698;2023-01-29T07:18:52;0.70;1.00
997;DHT22;487;50.126;8.698;2023-01-29T07:21:20;0.80;1.00
997;DHT22;487;50.126;8.698;2023-01-29T07:23:48;0.80;1.00
997;DHT22;487;50.126;8.698;2023-01-29T07:26:16;0.80;1.00
997;DHT22;487;50.126;8.698;2023-01-29T07:28:44;0.80;1.00
997;DHT22;487;50.126;8.698;2023-01-29T07:31:13;0.80;1.00
997;DHT22;487;50.126;8.698;2023-01-29T07:33:43;0.80;1.00
997;DHT22;487;50.126;8.698;2023-01-29T07:36:12;0.80;1.00
997;DHT22;487;50.126;8.698;2023-01-29T07:38:40;0.80;1.00
997;DHT22;487;50.126;8.698;2023-01-29T07:41:09;0.80;1.00
997;DHT22;487;50.126;8.698;2023-01-29T07:43:37;0.90;1.00
997;DHT22;487;50.126;8.698;2023-01-29T07:46:05;0.90;1.00
997;DHT22;487;50.126;8.698;2023-01-29T07:48:33;0.90;1.00
997;DHT22;487;50.126;8.698;2023-01-29T07:51:03;0.90;1.00
997;DHT22;487;50.126;8.698;2023-01-29T07:53:31;0.90;1.00
997;DHT22;487;50.126;8.698;2023-01-29T07:55:59;0.90;1.00
997;DHT22;487;50.126;8.698;2023-01-29T07:58:27;0.90;1.00
997;DHT22;487;50.126;8.698;2023-01-29T08:00:55;0.80;1.00
997;DHT22;487;50.126;8.698;2023-01-29T08:03:22;0.80;1.00
997;DHT22;487;50.126;8.698;2023-01-29T08:05:50;0.80;1.00
997;DHT22;487;50.126;8.698;2023-01-29T08:08:19;0.70;1.00
997;DHT22;487;50.126;8.698;2023-01-29T08:10:47;0.70;1.00
997;DHT22;487;50.126;8.698;2023-01-29T08:13:15;0.80;1.00
997;DHT22;487;50.126;8.698;2023-01-29T08:15:43;0.80;1.00
997;DHT22;487;50.126;8.698;2023-01-29T08:18:12;0.80;1.00
997;DHT22;487;50.126;8.698;2023-01-29T08:20:39;0.90;1.00
997;DHT22;487;50.126;8.698;2023-01-29T08:23:11;0.90;1.00
997;DHT22;487;50.126;8.698;2023-01-29T08:25:41;1.00;1.00
997;DHT22;487;50.126;8.698;2023-01-29T08:28:09;1.00;1.00
997;DHT22;487;50.126;8.698;2023-01-29T08:30:38;1.00;1.00
997;DHT22;487;50.126;8.698;2023-01-29T08:33:06;1.00;1.00
997;DHT22;487;50.126;8.698;2023-01-29T08:35:33;1.10;1.00
997;DHT22;487;50.126;8.698;2023-01-29T08:38:03;1.10;1.00
997;DHT22;487;50.126;8.698;2023-01-29T08:40:33;1.20;1.00
997;DHT22;487;50.126;8.698;2023-01-29T08:43:04;1.30;1.00
997;DHT22;487;50.126;8.698;2023-01-29T08:45:36;1.20;1.00
997;DHT22;487;50.126;8.698;2023-01-29T08:48:05;1.20;1.00
997;DHT22;487;50.126;8.698;2023-01-29T08:50:33;1.20;1.00
997;DHT22;487;50.126;8.698;2023-01-29T08:53:03;1.20;1.00
997;DHT22;487;50.126;8.698;2023-01-29T08:55:34;1.20;1.00
997;DHT22;487;50.126;8.698;2023-01-29T08:58:04;1.20;1.00
997;DHT22;487;50.126;8.698;2023-01-29T09:00:32;1.20;1.00
997;DHT22;487;50.126;8.698;2023-01-29T09:03:01;1.20;1.00
997;DHT22;487;50.126;8.698;2023-01-29T09:05:29;1.20;1.00
997;DHT22;487;50.126;8.698;2023-01-29T09:07:57;1.20;1.00
997;DHT22;487;50.126;8.698;2023-01-29T09:10:26;1.10;1.00
997;DHT22;487;50.126;8.698;2023-01-29T09:12:55;1.10;1.00
997;DHT22;487;50.126;8.698;2023-01-29T09:15:24;1.20;1.00
997;DHT22;487;50.126;8.698;2023-01-29T09:17:52;1.30;1.00
997;DHT22;487;50.126;8.698;2023-01-29T09:20:20;1.30;1.00
997;DHT22;487;50.126;8.698;2023-01-29T09:22:48;1.30;1.00
997;DHT22;487;50.126;8.698;2023-01-29T09:25:19;1.30;1.00
997;DHT22;487;50.126;8.698;2023-01-29T09:27:46;1.30;1.00
997;DHT22;487;50.126;8.698;2023-01-29T09:30:15;1.30;1.00
997;DHT22;487;50.126;8.698;2023-01-29T09:32:45;1.30;1.00
997;DHT22;487;50.126;8.698;2023-01-29T09:35:20;1.40;1.00
997;DHT22;487;50.126;8.698;2023-01-29T09:37:48;1.40;1.00
997;DHT22;487;50.126;8.698;2023-01-29T09:40:20;1.40;1.00
997;DHT22;487;50.126;8.698;2023-01-29T09:42:54;1.40;1.00
997;DHT22;487;50.126;8.698;2023-01-29T09:45:24;1.40;1.00
997;DHT22;487;50.126;8.698;2023-01-29T09:47:58;1.40;1.00
997;DHT22;487;50.126;8.698;2023-01-29T09:50:30;1.30;1.00
997;DHT22;487;50.126;8.698;2023-01-29T09:53:03;1.30;1.00
997;DHT22;487;50.126;8.698;2023-01-29T09:55:39;1.40;1.00
997;DHT22;487;50.126;8.698;2023-01-29T09:58:13;1.40;1.00
997;DHT22;487;50.126;8.698;2023-01-29T10:00:49;1.40;1.00
997;DHT22;487;50.126;8.698;2023-01-29T10:03:35;1.30;1.00
997;DHT22;487;50.126;8.698;2023-01-29T10:06:22;1.30;1.00
997;DHT22;487;50.126;8.698;2023-01-29T10:09:23;1.30;1.00
997;DHT22;487;50.126;8.698;2023-01-29T10:12:05;1.40;1.00
997;DHT22;487;50.126;8.698;2023-01-29T10:14:42;1.40;1.00
997;DHT22;487;50.126;8.698;2023-01-29T10:20:36;1.40;1.00
997;DHT22;487;50.126;8.698;2023-01-29T10:23:17;1.40;1.00
997;DHT22;487;50.126;8.698;2023-01-29T10:25:48;1.30;1.00
997;DHT22;487;50.126;8.698;2023-01-29T10:28:18;1.30;1.00
997;DHT22;487;50.126;8.698;2023-01-29T10:30:48;1.40;1.00
997;DHT22;487;50.126;8.698;2023-01-29T10:33:21;1.30;1.00
997;DHT22;487;50.126;8.698;2023-01-29T10:35:54;1.20;1.00
997;DHT22;487;50.126;8.698;2023-01-29T10:38:37;1.30;1.00
997;DHT22;487;50.126;8.698;2023-01-29T10:41:26;1.40;1.00
997;DHT22;487;50.126;8.698;2023-01-29T10:44:04;1.40;1.00
997;DHT22;487;50.126;8.698;2023-01-29T10:46:45;1.50;1.00
997;DHT22;487;50.126;8.698;2023-01-29T10:49:28;1.70;1.00
997;DHT22;487;50.126;8.698;2023-01-29T10:52:22;1.80;1.00
997;DHT22;487;50.126;8.698;2023-01-29T10:55:01;2.20;1.00
997;DHT22;487;50.126;8.698;2023-01-29T10:57:43;2.40;1.00
997;DHT22;487;50.126;8.698;2023-01-29T11:00:18;2.50;1.00
997;DHT22;487;50.126;8.698;2023-01-29T11:02:49;2.60;1.00
997;DHT22;487;50.126;8.698;2023-01-29T11:05:25;2.70;1.00
997;DHT22;487;50.126;8.698;2023-01-29T11:08:04;2.60;1.00
997;DHT22;487;50.126;8.698;2023-01-29T11:10:37;2.70;1.00
997;DHT22;487;50.126;8.698;2023-01-29T11:13:12;2.80;1.00
997;DHT22;487;50.126;8.698;2023-01-29T11:18:15;2.90;1.00
997;DHT22;487;50.126;8.698;2023-01-29T11:20:44;3.10;1.00
997;DHT22;487;50.126;8.698;2023-01-29T11:23:26;3.20;1.00
997;DHT22;487;50.126;8.698;2023-01-29T11:25:55;3.40;1.00
997;DHT22;487;50.126;8.698;2023-01-29T11:28:38;3.40;1.00
997;DHT22;487;50.126;8.698;2023-01-29T11:31:24;3.50;1.00
997;DHT22;487;50.126;8.698;2023-01-29T11:34:00;3.40;1.00
997;DHT22;487;50.126;8.698;2023-01-29T11:36:33;3.40;1.00
997;DHT22;487;50.126;8.698;2023-01-29T11:39:14;3.40;1.00
997;DHT22;487;50.126;8.698;2023-01-29T11:41:46;3.00;1.00
997;DHT22;487;50.126;8.698;2023-01-29T11:44:19;2.60;1.00
997;DHT22;487;50.126;8.698;2023-01-29T11:46:47;2.50;1.00
997;DHT22;487;50.126;8.698;2023-01-29T11:49:29;2.00;1.00
997;DHT22;487;50.126;8.698;2023-01-29T11:52:00;2.00;1.00
997;DHT22;487;50.126;8.698;2023-01-29T11:54:33;1.90;1.00
997;DHT22;487;50.126;8.698;2023-01-29T11:57:02;1.90;1.00
997;DHT22;487;50.126;8.698;2023-01-29T11:59:41;1.90;1.00
997;DHT22;487;50.126;8.698;2023-01-29T12:02:22;2.00;1.00
997;DHT22;487;50.126;8.698;2023-01-29T12:04:53;2.00;1.00
997;DHT22;487;50.126;8.698;2023-01-29T12:07:22;2.10;1.00
997;DHT22;487;50.126;8.698;2023-01-29T12:09:54;2.10;1.00
997;DHT22;487;50.126;8.698;2023-01-29T12:12:35;2.10;1.00
997;DHT22;487;50.126;8.698;2023-01-29T12:15:15;2.00;1.00
997;DHT22;487;50.126;8.698;2023-01-29T12:17:50;1.90;1.00
997;DHT22;487;50.126;8.698;2023-01-29T12:20:25;1.90;1.00
997;DHT22;487;50.126;8.698;2023-01-29T12:23:00;1.90;1.00
997;DHT22;487;50.126;8.698;2023-01-29T12:25:40;2.10;1.00
997;DHT22;487;50.126;8.698;2023-01-29T12:28:26;2.20;1.00
997;DHT22;487;50.126;8.698;2023-01-29T12:31:07;2.20;1.00
997;DHT22;487;50.126;8.698;2023-01-29T12:33:42;2.10;1.00
997;DHT22;487;50.126;8.698;2023-01-29T12:36:17;2.00;1.00
997;DHT22;487;50.126;8.698;2023-01-29T12:38:45;1.90;1.00
997;DHT22;487;50.126;8.698;2023-01-29T12:41:30;1.90;1.00
997;DHT22;487;50.126;8.698;2023-01-29T12:44:04;1.70;1.00
997;DHT22;487;50.126;8.698;2023-01-29T12:46:37;1.70;1.00
997;DHT22;487;50.126;8.698;2023-01-29T12:49:12;1.80;1.00
997;DHT22;487;50.126;8.698;2023-01-29T12:51:48;1.70;1.00
997;DHT22;487;50.126;8.698;2023-01-29T12:54:23;1.70;1.00
997;DHT22;487;50.126;8.698;2023-01-29T12:56:59;1.70;1.00
997;DHT22;487;50.126;8.698;2023-01-29T12:59:32;1.70;1.00
997;DHT22;487;50.126;8.698;2023-01-29T13:02:10;1.80;1.00
997;DHT22;487;50.126;8.698;2023-01-29T13:04:44;2.00;1.00
997;DHT22;487;50.126;8.698;2023-01-29T13:07:16;2.00;1.00
997;DHT22;487;50.126;8.698;2023-01-29T13:09:48;2.00;1.00
997;DHT22;487;50.126;8.698;2023-01-29T13:12:20;2.00;1.00
997;DHT22;487;50.126;8.698;2023-01-29T13:14:52;2.10;1.00
997;DHT22;487;50.126;8.698;2023-01-29T13:17:23;2.20;1.00
997;DHT22;487;50.126;8.698;2023-01-29T13:19:53;2.30;1.00
997;DHT22;487;50.126;8.698;2023-01-29T13:22:24;2.20;1.00
997;DHT22;487;50.126;8.698;2023-01-29T13:24:53;2.10;1.00
997;DHT22;487;50.126;8.698;2023-01-29T13:27:34;2.00;1.00
997;DHT22;487;50.126;8.698;2023-01-29T13:30:04;2.10;1.00
997;DHT22;487;50.126;8.698;2023-01-29T13:32:34;2.20;1.00
997;DHT22;487;50.126;8.698;2023-01-29T13:35:05;2.30;1.00
997;DHT22;487;50.126;8.698;2023-01-29T13:37:41;2.50;1.00
997;DHT22;487;50.126;8.698;2023-01-29T13:40:19;2.60;1.00
997;DHT22;487;50.126;8.698;2023-01-29T13:42:51;2.60;1.00
997;DHT22;487;50.126;8.698;2023-01-29T13:45:21;2.50;1.00
997;DHT22;487;50.126;8.698;2023-01-29T13:47:51;2.40;1.00
997;DHT22;487;50.126;8.698;2023-01-29T13:50:24;2.40;1.00
997;DHT22;487;50.126;8.698;2023-01-29T13:52:57;2.40;1.00
997;DHT22;487;50.126;8.698;2023-01-29T13:55:30;2.30;1.00
997;DHT22;487;50.126;8.698;2023-01-29T13:58:00;2.20;1.00
997;DHT22;487;50.126;8.698;2023-01-29T14:00:47;2.30;1.00
997;DHT22;487;50.126;8.698;2023-01-29T14:06:48;2.80;1.00
997;DHT22;487;50.126;8.698;2023-01-29T14:09:34;3.00;1.00
997;DHT22;487;50.126;8.698;2023-01-29T14:12:43;3.00;1.00
997;DHT22;487;50.126;8.698;2023-01-29T14:15:27;3.10;1.00
997;DHT22;487;50.126;8.698;2023-01-29T14:17:58;3.00;1.00
997;DHT22;487;50.126;8.698;2023-01-29T14:20:31;2.70;1.00
997;DHT22;487;50.126;8.698;2023-01-29T14:23:29;2.50;1.00
997;DHT22;487;50.126;8.698;2023-01-29T14:25:58;2.20;1.00
997;DHT22;487;50.126;8.698;2023-01-29T14:28:30;2.10;1.00
997;DHT22;487;50.126;8.698;2023-01-29T14:31:01;2.10;1.00
997;DHT22;487;50.126;8.698;2023-01-29T14:33:33;2.00;1.00
997;DHT22;487;50.126;8.698;2023-01-29T14:36:05;1.90;1.00
997;DHT22;487;50.126;8.698;2023-01-29T14:38:33;1.90;1.00
997;DHT22;487;50.126;8.698;2023-01-29T14:41:06;2.00;1.00
997;DHT22;487;50.126;8.698;2023-01-29T14:43:34;2.00;1.00
997;DHT22;487;50.126;8.698;2023-01-29T14:49:09;2.10;1.00
997;DHT22;487;50.126;8.698;2023-01-29T14:51:39;2.00;1.00
997;DHT22;487;50.126;8.698;2023-01-29T14:54:17;2.00;1.00
997;DHT22;487;50.126;8.698;2023-01-29T14:56:55;2.10;1.00
997;DHT22;487;50.126;8.698;2023-01-29T14:59:28;2.10;1.00
997;DHT22;487;50.126;8.698;2023-01-29T15:01:59;2.20;1.00
997;DHT22;487;50.126;8.698;2023-01-29T15:04:36;2.30;1.00
997;DHT22;487;50.126;8.698;2023-01-29T15:07:14;2.30;1.00
997;DHT22;487;50.126;8.698;2023-01-29T15:09:46;2.40;1.00
997;DHT22;487;50.126;8.698;2023-01-29T15:12:20;2.40;1.00
997;DHT22;487;50.126;8.698;2023-01-29T15:14:58;2.60;1.00
997;DHT22;487;50.126;8.698;2023-01-29T15:17:31;2.60;1.00
997;DHT22;487;50.126;8.698;2023-01-29T15:20:26;2.70;1.00
997;DHT22;487;50.126;8.698;2023-01-29T15:22:54;2.80;1.00
997;DHT22;487;50.126;8.698;2023-01-29T15:25:23;2.80;1.00
997;DHT22;487;50.126;8.698;2023-01-29T15:27:52;2.70;1.00
997;DHT22;487;50.126;8.698;2023-01-29T15:30:27;2.60;1.00
997;DHT22;487;50.126;8.698;2023-01-29T15:32:55;2.60;1.00
997;DHT22;487;50.126;8.698;2023-01-29T15:35:28;3.20;1.00
997;DHT22;487;50.126;8.698;2023-01-29T15:37:59;3.20;1.00
997;DHT22;487;50.126;8.698;2023-01-29T15:40:27;3.70;1.00
997;DHT22;487;50.126;8.698;2023-01-29T15:42:55;4.20;1.00
997;DHT22;487;50.126;8.698;2023-01-29T15:45:26;4.80;1.00
997;DHT22;487;50.126;8.698;2023-01-29T15:48:00;5.20;1.00
997;DHT22;487;50.126;8.698;2023-01-29T15:50:34;5.40;1.00
997;DHT22;487;50.126;8.698;2023-01-29T15:53:06;5.50;1.00
997;DHT22;487;50.126;8.698;2023-01-29T15:55:35;5.40;1.00
997;DHT22;487;50.126;8.698;2023-01-29T15:58:03;5.10;1.00
997;DHT22;487;50.126;8.698;2023-01-29T16:00:31;4.30;1.00
997;DHT22;487;50.126;8.698;2023-01-29T16:02:59;4.30;1.00
997;DHT22;487;50.126;8.698;2023-01-29T16:05:29;3.90;1.00
997;DHT22;487;50.126;8.698;2023-01-29T16:08:01;3.70;1.00
997;DHT22;487;50.126;8.698;2023-01-29T16:10:31;3.40;1.00
997;DHT22;487;50.126;8.698;2023-01-29T16:13:02;3.20;1.00
997;DHT22;487;50.126;8.698;2023-01-29T16:15:31;3.10;1.00
997;DHT22;487;50.126;8.698;2023-01-29T16:18:01;2.70;1.00
997;DHT22;487;50.126;8.698;2023-01-29T16:20:33;2.70;1.00
997;DHT22;487;50.126;8.698;2023-01-29T16:23:04;2.60;1.00
997;DHT22;487;50.126;8.698;2023-01-29T16:25:33;2.50;1.00
997;DHT22;487;50.126;8.698;2023-01-29T16:28:04;2.50;1.00
997;DHT22;487;50.126;8.698;2023-01-29T16:30:33;2.40;1.00
997;DHT22;487;50.126;8.698;2023-01-29T16:33:02;2.30;1.00
997;DHT22;487;50.126;8.698;2023-01-29T16:35:32;2.20;1.00
997;DHT22;487;50.126;8.698;2023-01-29T16:38:05;2.20;1.00
997;DHT22;487;50.126;8.698;2023-01-29T16:40:34;2.20;1.00
997;DHT22;487;50.126;8.698;2023-01-29T16:46:17;2.10;1.00
997;DHT22;487;50.126;8.698;2023-01-29T16:48:46;2.10;1.00
997;DHT22;487;50.126;8.698;2023-01-29T16:51:20;2.10;1.00
997;DHT22;487;50.126;8.698;2023-01-29T16:53:55;2.00;1.00
997;DHT22;487;50.126;8.698;2023-01-29T16:56:25;2.00;1.00
997;DHT22;487;50.126;8.698;2023-01-29T16:58:54;2.00;1.00
997;DHT22;487;50.126;8.698;2023-01-29T17:01:23;2.00;1.00
997;DHT22;487;50.126;8.698;2023-01-29T17:03:59;1.90;1.00
997;DHT22;487;50.126;8.698;2023-01-29T17:06:30;1.90;1.00
997;DHT22;487;50.126;8.698;2023-01-29T17:09:00;1.90;1.00
997;DHT22;487;50.126;8.698;2023-01-29T17:11:32;1.90;1.00
997;DHT22;487;50.126;8.698;2023-01-29T17:14:01;1.80;1.00
997;DHT22;487;50.126;8.698;2023-01-29T17:16:31;1.80;1.00
997;DHT22;487;50.126;8.698;2023-01-29T17:18:59;1.80;1.00
997;DHT22;487;50.126;8.698;2023-01-29T17:21:28;1.80;1.00
997;DHT22;487;50.126;8.698;2023-01-29T17:23:56;1.80;1.00
997;DHT22;487;50.126;8.698;2023-01-29T17:26:25;1.80;1.00
997;DHT22;487;50.126;8.698;2023-01-29T17:28:53;1.80;1.00
997;DHT22;487;50.126;8.698;2023-01-29T17:31:21;1.80;1.00
997;DHT22;487;50.126;8.698;2023-01-29T17:33:49;1.80;1.00
997;DHT22;487;50.126;8.698;2023-01-29T17:36:17;1.80;1.00
997;DHT22;487;50.126;8.698;2023-01-29T17:38:45;1.80;1.00
997;DHT22;487;50.126;8.698;2023-01-29T17:41:17;1.80;1.00
997;DHT22;487;50.126;8.698;2023-01-29T17:43:47;1.80;1.00
997;DHT22;487;50.126;8.698;2023-01-29T17:46:16;1.80;1.00
997;DHT22;487;50.126;8.698;2023-01-29T17:48:44;1.80;1.00
997;DHT22;487;50.126;8.698;2023-01-29T17:51:16;1.80;1.00
997;DHT22;487;50.126;8.698;2023-01-29T17:53:44;1.80;1.00
997;DHT22;487;50.126;8.698;2023-01-29T17:56:17;1.80;1.00
997;DHT22;487;50.126;8.698;2023-01-29T17:58:56;1.70;1.00
997;DHT22;487;50.126;8.698;2023-01-29T18:01:24;1.80;1.00
997;DHT22;487;50.126;8.698;2023-01-29T18:03:52;1.70;1.00
997;DHT22;487;50.126;8.698;2023-01-29T18:06:25;1.70;1.00
997;DHT22;487;50.126;8.698;2023-01-29T18:08:54;1.70;1.00
997;DHT22;487;50.126;8.698;2023-01-29T18:16:30;1.80;1.00
997;DHT22;487;50.126;8.698;2023-01-29T18:19:02;1.70;1.00
997;DHT22;487;50.126;8.698;2023-01-29T18:21:33;1.70;1.00
997;DHT22;487;50.126;8.698;2023-01-29T18:24:01;1.70;1.00
997;DHT22;487;50.126;8.698;2023-01-29T18:28:59;1.70;1.00
997;DHT22;487;50.126;8.698;2023-01-29T18:31:27;1.70;1.00
997;DHT22;487;50.126;8.698;2023-01-29T18:33:56;1.60;1.00
997;DHT22;487;50.126;8.698;2023-01-29T18:36:24;1.60;1.00
997;DHT22;487;50.126;8.698;2023-01-29T18:38:52;1.60;1.00
997;DHT22;487;50.126;8.698;2023-01-29T18:41:20;1.60;1.00
997;DHT22;487;50.126;8.698;2023-01-29T18:43:48;1.60;1.00
997;DHT22;487;50.126;8.698;2023-01-29T18:46:19;1.60;1.00
997;DHT22;487;50.126;8.698;2023-01-29T18:51:19;1.60;1.00
997;DHT22;487;50.126;8.698;2023-01-29T18:53:50;1.60;1.00
997;DHT22;487;50.126;8.698;2023-01-29T18:56:19;1.50;1.00
997;DHT22;487;50.126;8.698;2023-01-29T18:58:47;1.50;1.00
997;DHT22;487;50.126;8.698;2023-01-29T19:03:55;1.50;1.00
997;DHT22;487;50.126;8.698;2023-01-29T19:06:25;1.50;1.00
997;DHT22;487;50.126;8.698;2023-01-29T19:08:53;1.50;1.00
997;DHT22;487;50.126;8.698;2023-01-29T19:11:25;1.50;1.00
997;DHT22;487;50.126;8.698;2023-01-29T19:13:53;1.50;1.00
997;DHT22;487;50.126;8.698;2023-01-29T19:16:25;1.50;1.00
997;DHT22;487;50.126;8.698;2023-01-29T19:21:25;1.40;1.00
997;DHT22;487;50.126;8.698;2023-01-29T19:24:01;-0.20;1.00
997;DHT22;487;50.126;8.698;2023-01-29T19:26:29;1.40;1.00
997;DHT22;487;50.126;8.698;2023-01-29T19:29:00;1.40;1.00
997;DHT22;487;50.126;8.698;2023-01-29T19:31:30;1.30;1.00
997;DHT22;487;50.126;8.698;2023-01-29T19:33:58;1.30;1.00
997;DHT22;487;50.126;8.698;2023-01-29T19:36:26;1.30;1.00
997;DHT22;487;50.126;8.698;2023-01-29T19:38:54;1.30;1.00
997;DHT22;487;50.126;8.698;2023-01-29T19:41:22;1.30;1.00
997;DHT22;487;50.126;8.698;2023-01-29T19:43:50;1.20;1.00
997;DHT22;487;50.126;8.698;2023-01-29T19:46:19;1.20;1.00
997;DHT22;487;50.126;8.698;2023-01-29T19:48:48;1.00;1.00
997;DHT22;487;50.126;8.698;2023-01-29T19:51:16;1.00;1.00
997;DHT22;487;50.126;8.698;2023-01-29T19:53:44;0.90;1.00
997;DHT22;487;50.126;8.698;2023-01-29T19:56:14;0.90;1.00
997;DHT22;487;50.126;8.698;2023-01-29T19:58:43;0.80;3.90
997;DHT22;487;50.126;8.698;2023-01-29T20:01:14;0.80;11.20
997;DHT22;487;50.126;8.698;2023-01-29T20:03:42;0.70;11.40
997;DHT22;487;50.126;8.698;2023-01-29T20:06:15;0.70;14.40
997;DHT22;487;50.126;8.698;2023-01-29T20:08:43;0.70;20.00
997;DHT22;487;50.126;8.698;2023-01-29T20:11:12;0.70;18.30
997;DHT22;487;50.126;8.698;2023-01-29T20:13:45;0.70;17.60
997;DHT22;487;50.126;8.698;2023-01-29T20:16:13;0.70;21.90
997;DHT22;487;50.126;8.698;2023-01-29T20:18:41;0.60;17.20
997;DHT22;487;50.126;8.698;2023-01-29T20:23:40;0.50;17.30
997;DHT22;487;50.126;8.698;2023-01-29T20:26:13;0.50;23.50
997;DHT22;487;50.126;8.698;2023-01-29T20:28:42;0.50;18.20
997;DHT22;487;50.126;8.698;2023-01-29T20:31:11;0.50;18.30
997;DHT22;487;50.126;8.698;2023-01-29T20:33:40;0.60;16.70
997;DHT22;487;50.126;8.698;2023-01-29T20:36:09;0.70;16.80
997;DHT22;487;50.126;8.698;2023-01-29T20:38:39;0.60;16.80
997;DHT22;487;50.126;8.698;2023-01-29T20:41:08;0.80;16.00
997;DHT22;487;50.126;8.698;2023-01-29T20:43:39;0.80;14.60
997;DHT22;487;50.126;8.698;2023-01-29T20:46:07;0.90;11.30
997;DHT22;487;50.126;8.698;2023-01-29T20:48:36;0.90;15.20
997;DHT22;487;50.126;8.698;2023-01-29T20:51:05;0.80;11.60
997;DHT22;487;50.126;8.698;2023-01-29T20:53:35;0.90;5.70
997;DHT22;487;50.126;8.698;2023-01-29T20:56:05;0.90;5.20
997;DHT22;487;50.126;8.698;2023-01-29T21:01:06;1.00;1.00
997;DHT22;487;50.126;8.698;2023-01-29T21:06:02;0.90;1.00
997;DHT22;487;50.126;8.698;2023-01-29T21:08:30;1.00;1.00
997;DHT22;487;50.126;8.698;2023-01-29T21:10:58;1.00;4.10
997;DHT22;487;50.126;8.698;2023-01-29T21:13:28;1.20;1.00
997;DHT22;487;50.126;8.698;2023-01-29T21:15:58;1.20;5.60
997;DHT22;487;50.126;8.698;2023-01-29T21:18:26;1.30;1.00
997;DHT22;487;50.126;8.698;2023-01-29T21:20:54;1.30;3.90
997;DHT22;487;50.126;8.698;2023-01-29T21:25:51;1.30;1.00
997;DHT22;487;50.126;8.698;2023-01-29T21:28:18;1.40;1.00
997;DHT22;487;50.126;8.698;2023-01-29T21:30:48;1.40;1.00
997;DHT22;487;50.126;8.698;2023-01-29T21:33:16;1.40;1.00
997;DHT22;487;50.126;8.698;2023-01-29T21:35:44;1.40;1.00
997;DHT22;487;50.126;8.698;2023-01-29T21:38:12;1.40;1.00
997;DHT22;487;50.126;8.698;2023-01-29T21:40:40;1.50;1.00
997;DHT22;487;50.126;8.698;2023-01-29T21:43:08;1.50;1.00
997;DHT22;487;50.126;8.698;2023-01-29T21:45:38;1.40;1.00
997;DHT22;487;50.126;8.698;2023-01-29T21:48:09;1.40;1.00
997;DHT22;487;50.126;8.698;2023-01-29T21:50:37;1.40;1.00
997;DHT22;487;50.126;8.698;2023-01-29T21:53:05;1.40;1.00
997;DHT22;487;50.126;8.698;2023-01-29T21:55:33;1.40;1.00
997;DHT22;487;50.126;8.698;2023-01-29T21:58:01;1.50;1.00
997;DHT22;487;50.126;8.698;2023-01-29T22:00:29;1.50;1.00
997;DHT22;487;50.126;8.698;2023-01-29T22:02:57;1.50;1.00
997;DHT22;487;50.126;8.698;2023-01-29T22:05:27;1.50;1.00
997;DHT22;487;50.126;8.698;2023-01-29T22:07:55;1.40;1.00
997;DHT22;487;50.126;8.698;2023-01-29T22:12:52;1.40;1.00
997;DHT22;487;50.126;8.698;2023-01-29T22:15:19;1.30;1.00
997;DHT22;487;50.126;8.698;2023-01-29T22:17:49;1.40;1.00
997;DHT22;487;50.126;8.698;2023-01-29T22:20:18;1.40;2.20